Wunstorf, Germany

6:32 PM CEST on April 25, 2017 (GMT +0200)
Wunstorf Air Base | | Change Station

Elev 230 ft 52.45 °N, 9.43 °E | Updated 12 minutes ago

Partly Cloudy
Partly Cloudy
43 °F
Feels Like 38 °F
N
9
Wind Variable Wind from WNW

Today
High -- | Low -- °F
--% Chance of Precip.
Yesterday
High -- | Low -- °F
Precip. -- in
Pressure 29.77 in
Visibility 6.2 miles
Clouds Few 1500 ft
Windchill 38 °F
Dew Point 37 °F
Humidity 81%
Rainfall 0.00 in
Snow Depth Not available.
6:03 AM 8:38 PM
Waning Crescent, 1% visible
METAR ETNW 251620Z 29008KT 9999 FEW015CB 06/03 Q1008 BLU+
Pressure 29.77 in
Visibility 6.2 miles
Clouds Few 1500 ft
Windchill 38 °F
Dew Point 37 °F
Humidity 81%
Rainfall 0.00 in
Snow Depth Not available.
6:03 AM 8:38 PM
Waning Crescent, 1% visible
METAR ETNW 251620Z 29008KT 9999 FEW015CB 06/03 Q1008 BLU+

Get Severe Weather Alerts

Thanks for signing up!

Be on the lookout for a verification email in your inbox.

You'll start receiving the daily forecast at 8 AM.

×

10-Day Weather Forecast

×

Almanac

Astronomy

Apr. 25, 2017 Rise Set
Actual Time
Civil Twilight
Nautical Twilight
Astronomical Twilight
Moon
Length of Visible Light
Length of Day
Tomorrow will be .
, % of the Moon is Illuminated

Today's Extremes

Country Highs Country Lows

Community

WunderPhotos

WunderBlog® & News

Nearby

Air Quality

  Air Quality AQ Index Pollutant
Not available.

Snow Depth

Station Depth Elevation

Earthquake Activity

City Distance Mag. Time & Date
Minimum magnitude displayed is 2.5.

Coastal Water Temperatures

Place Temperature

Stations

Nearby Weather Stations

Station Location Temp. Windchill Dew Point Humidity Wind Precip. Elev Updated Type